createdAt,value
2023-03-24T00:01:54.151Z,10.81
2023-03-24T00:04:21.781Z,10.77
2023-03-24T00:06:52.451Z,10.74
2023-03-24T00:09:19.668Z,10.69
2023-03-24T00:11:46.759Z,10.67
2023-03-24T00:14:13.918Z,10.61
2023-03-24T00:16:45.513Z,10.59
2023-03-24T00:19:15.693Z,10.60
2023-03-24T00:21:43.624Z,10.59
2023-03-24T00:24:11.576Z,10.59
2023-03-24T00:26:39.915Z,10.59
2023-03-24T00:29:08.464Z,10.57
2023-03-24T00:31:40.018Z,10.56
2023-03-24T00:34:08.739Z,10.57
2023-03-24T00:36:36.648Z,10.56
2023-03-24T00:39:04.885Z,10.54
2023-03-24T00:41:32.315Z,10.54
2023-03-24T00:43:59.996Z,10.53
2023-03-24T00:46:27.650Z,10.51
2023-03-24T00:49:05.434Z,10.51
2023-03-24T00:51:34.781Z,10.50
2023-03-24T00:54:02.203Z,10.51
2023-03-24T00:56:32.861Z,10.53
2023-03-24T00:59:02.317Z,10.56
2023-03-24T01:01:33.065Z,10.58
2023-03-24T01:04:00.533Z,10.59
2023-03-24T01:06:27.674Z,10.61
2023-03-24T01:08:54.835Z,10.59
2023-03-24T01:11:24.241Z,10.59
2023-03-24T01:13:53.319Z,10.57
2023-03-24T01:16:22.163Z,10.56
2023-03-24T01:18:49.457Z,10.54
2023-03-24T01:21:18.302Z,10.53
2023-03-24T01:23:45.335Z,10.51
2023-03-24T01:26:12.408Z,10.52
2023-03-24T01:28:43.777Z,10.52
2023-03-24T01:31:11.826Z,10.53
2023-03-24T01:33:39.141Z,10.44
2023-03-24T01:36:06.742Z,10.44
2023-03-24T01:38:34.325Z,10.43
2023-03-24T01:41:01.481Z,10.40
2023-03-24T01:43:33.409Z,10.40
2023-03-24T01:46:05.621Z,10.35
2023-03-24T01:48:53.164Z,10.30
2023-03-24T01:51:26.699Z,10.26
2023-03-24T01:54:02.416Z,10.29
2023-03-24T01:56:32.463Z,10.35
2023-03-24T01:59:01.168Z,10.34
2023-03-24T02:01:37.485Z,10.32
2023-03-24T02:04:38.868Z,10.33
2023-03-24T02:07:28.009Z,10.27
2023-03-24T02:09:55.079Z,10.26
2023-03-24T02:12:22.290Z,10.20
2023-03-24T02:14:50.529Z,10.22
2023-03-24T02:17:21.646Z,10.22
2023-03-24T02:19:55.090Z,10.21
2023-03-24T02:22:34.501Z,10.22
2023-03-24T02:25:14.030Z,10.16
2023-03-24T02:27:56.395Z,10.12
2023-03-24T02:30:33.225Z,10.10
2023-03-24T02:33:19.126Z,10.09
2023-03-24T02:36:04.852Z,10.04
2023-03-24T02:38:42.482Z,10.04
2023-03-24T02:41:21.810Z,10.06
2023-03-24T02:43:52.002Z,10.03
2023-03-24T02:46:30.777Z,9.94
2023-03-24T02:49:01.075Z,9.95
2023-03-24T02:51:31.262Z,9.96
2023-03-24T02:54:07.675Z,9.96
2023-03-24T02:56:53.412Z,9.98
2023-03-24T02:59:54.103Z,9.94
2023-03-24T03:02:45.631Z,9.87
2023-03-24T03:05:33.077Z,9.87
2023-03-24T03:08:01.451Z,9.85
2023-03-24T03:10:34.228Z,9.80
2023-03-24T03:13:04.686Z,9.77
2023-03-24T03:15:34.530Z,9.82
2023-03-24T03:18:07.271Z,9.82
2023-03-24T03:20:38.335Z,9.84
2023-03-24T03:23:08.346Z,9.87
2023-03-24T03:25:38.712Z,9.80
2023-03-24T03:28:06.268Z,9.81
2023-03-24T03:30:41.827Z,9.79
2023-03-24T03:33:29.181Z,9.79
2023-03-24T03:36:18.069Z,9.79
2023-03-24T03:38:47.891Z,9.78
2023-03-24T03:41:18.290Z,9.77
2023-03-24T03:43:48.279Z,9.81
2023-03-24T03:46:16.698Z,9.83
2023-03-24T03:48:44.994Z,9.84
2023-03-24T03:51:14.461Z,9.84
2023-03-24T03:53:49.305Z,9.87
2023-03-24T03:56:21.914Z,9.87
2023-03-24T03:58:59.932Z,9.86
2023-03-24T04:01:29.288Z,9.86
2023-03-24T04:04:26.209Z,9.86
2023-03-24T04:07:20.640Z,9.87
2023-03-24T04:10:05.892Z,9.90
2023-03-24T04:12:51.936Z,9.88
2023-03-24T04:15:55.667Z,9.87
2023-03-24T04:19:03.487Z,9.91
2023-03-24T04:21:33.858Z,9.93
2023-03-24T04:24:12.730Z,9.95
2023-03-24T04:26:48.048Z,9.95
2023-03-24T04:29:25.960Z,9.92
2023-03-24T04:32:03.081Z,9.95
2023-03-24T04:34:33.350Z,9.95
2023-03-24T04:37:23.280Z,9.95
2023-03-24T04:40:06.067Z,9.96
2023-03-24T04:42:45.577Z,9.96
2023-03-24T04:45:14.548Z,9.96
2023-03-24T04:48:01.943Z,9.94
2023-03-24T04:50:48.269Z,9.97
2023-03-24T04:53:19.328Z,10.00
2023-03-24T04:55:49.695Z,10.01
2023-03-24T04:58:23.016Z,10.00
2023-03-24T05:00:51.277Z,10.00
2023-03-24T05:03:18.935Z,10.03
2023-03-24T05:05:48.291Z,10.04
2023-03-24T05:08:16.556Z,10.03
2023-03-24T05:10:44.182Z,10.07
2023-03-24T05:13:12.148Z,10.07
2023-03-24T05:15:52.927Z,10.10
2023-03-24T05:18:32.122Z,10.09
2023-03-24T05:21:00.265Z,10.11
2023-03-24T05:23:27.883Z,10.15
2023-03-24T05:25:56.497Z,10.14
2023-03-24T05:28:25.182Z,10.16
2023-03-24T05:30:55.031Z,10.17
2023-03-24T05:33:40.896Z,10.15
2023-03-24T05:36:11.437Z,10.12
2023-03-24T05:38:40.315Z,10.10
2023-03-24T05:41:07.468Z,10.08
2023-03-24T05:43:38.319Z,10.11
2023-03-24T05:46:11.181Z,10.12
2023-03-24T05:48:38.373Z,10.13
2023-03-24T05:51:13.025Z,10.13
2023-03-24T05:53:40.577Z,10.14
2023-03-24T05:56:18.838Z,10.15
2023-03-24T05:59:04.297Z,10.19
2023-03-24T06:01:58.495Z,10.16
2023-03-24T06:04:52.164Z,10.25
2023-03-24T06:07:26.964Z,10.31
2023-03-24T06:09:58.015Z,10.36
2023-03-24T06:12:25.769Z,10.37
2023-03-24T06:15:00.879Z,10.38
2023-03-24T06:17:30.369Z,10.38
2023-03-24T06:20:05.669Z,10.39
2023-03-24T06:22:47.538Z,10.40
2023-03-24T06:25:20.226Z,10.34
2023-03-24T06:28:05.847Z,10.33
2023-03-24T06:30:34.242Z,10.34
2023-03-24T06:33:01.559Z,10.37
2023-03-24T06:35:28.816Z,10.38
2023-03-24T06:38:04.116Z,10.38
2023-03-24T06:40:31.627Z,10.37
2023-03-24T06:42:59.421Z,10.35
2023-03-24T06:45:27.607Z,10.32
2023-03-24T06:47:58.343Z,10.33
2023-03-24T06:50:33.229Z,10.31
2023-03-24T06:53:02.498Z,10.28
2023-03-24T06:55:32.495Z,10.29
2023-03-24T06:57:59.706Z,10.31
2023-03-24T07:00:35.332Z,10.30
2023-03-24T07:03:28.547Z,10.30
2023-03-24T07:06:29.874Z,10.33
2023-03-24T07:09:02.991Z,10.36
2023-03-24T07:11:31.645Z,10.37
2023-03-24T07:14:00.246Z,10.40
2023-03-24T07:16:29.005Z,10.39
2023-03-24T07:19:16.380Z,10.39
2023-03-24T07:21:50.027Z,10.38
2023-03-24T07:24:21.404Z,10.39
2023-03-24T07:26:59.498Z,10.41
2023-03-24T07:29:26.551Z,10.41
2023-03-24T07:32:14.017Z,10.41
2023-03-24T07:34:41.426Z,10.41
2023-03-24T07:37:08.493Z,10.44
2023-03-24T07:39:35.628Z,10.47
2023-03-24T07:42:02.874Z,10.48
2023-03-24T07:44:53.000Z,10.53
2023-03-24T07:47:20.235Z,10.55
2023-03-24T07:49:48.111Z,10.62
2023-03-24T07:52:15.249Z,10.58
2023-03-24T07:54:45.309Z,10.59
2023-03-24T07:57:32.457Z,10.62
2023-03-24T07:59:59.880Z,10.66
2023-03-24T08:02:53.664Z,10.72
2023-03-24T08:05:40.531Z,10.72
2023-03-24T08:08:20.263Z,10.73
2023-03-24T08:10:50.076Z,10.73
2023-03-24T08:13:18.174Z,10.71
2023-03-24T08:15:45.536Z,10.70
2023-03-24T08:18:12.843Z,10.79
2023-03-24T08:20:40.044Z,10.82
2023-03-24T08:23:08.426Z,10.89
2023-03-24T08:25:36.510Z,10.91
2023-03-24T08:28:04.354Z,10.91
2023-03-24T08:30:31.761Z,10.99
2023-03-24T08:33:00.508Z,11.07
2023-03-24T08:35:29.046Z,11.04
2023-03-24T08:37:56.204Z,11.08
2023-03-24T08:40:24.262Z,11.11
2023-03-24T08:42:52.968Z,11.18
2023-03-24T08:45:21.246Z,11.31
2023-03-24T08:47:49.333Z,11.31
2023-03-24T08:50:16.527Z,11.30
2023-03-24T08:52:43.966Z,11.36
2023-03-24T08:55:11.443Z,11.32
2023-03-24T08:57:38.518Z,11.33
2023-03-24T09:00:15.451Z,11.32
2023-03-24T09:02:43.387Z,11.37
2023-03-24T09:05:11.382Z,11.32
2023-03-24T09:07:38.858Z,11.29
2023-03-24T09:10:07.455Z,11.25
2023-03-24T09:12:35.233Z,11.27
2023-03-24T09:15:02.867Z,11.28
2023-03-24T09:17:29.937Z,11.24
2023-03-24T09:19:57.108Z,11.17
2023-03-24T09:22:24.282Z,11.18
2023-03-24T09:24:51.417Z,11.13
2023-03-24T09:27:18.657Z,11.12
2023-03-24T09:29:45.931Z,11.09
2023-03-24T09:32:13.009Z,11.11
2023-03-24T09:34:40.051Z,11.06
2023-03-24T09:37:07.175Z,11.05
2023-03-24T09:39:37.080Z,11.05
2023-03-24T09:42:05.654Z,11.02
2023-03-24T09:44:41.160Z,11.05
2023-03-24T09:47:11.641Z,10.97
2023-03-24T09:49:41.611Z,11.01
2023-03-24T09:52:12.764Z,10.98
2023-03-24T09:54:42.671Z,10.99
2023-03-24T09:57:32.522Z,11.01
2023-03-24T09:59:59.677Z,11.08
2023-03-24T10:02:28.437Z,10.98
2023-03-24T10:04:56.051Z,10.97
2023-03-24T10:07:49.674Z,10.92
2023-03-24T10:10:22.203Z,10.88
2023-03-24T10:12:49.665Z,10.94
2023-03-24T10:15:37.774Z,10.92
2023-03-24T10:18:20.927Z,10.90
2023-03-24T10:20:53.624Z,10.94
2023-03-24T10:23:29.747Z,10.96
2023-03-24T10:26:04.625Z,11.09
2023-03-24T10:28:31.678Z,11.21
2023-03-24T10:31:02.555Z,11.33
2023-03-24T10:33:29.874Z,11.38
2023-03-24T10:36:01.956Z,11.42
2023-03-24T10:38:29.284Z,11.40
2023-03-24T10:40:56.406Z,11.41
2023-03-24T10:43:24.095Z,11.37
2023-03-24T10:45:55.829Z,11.55
2023-03-24T10:48:41.975Z,11.64
2023-03-24T10:51:28.503Z,11.81
2023-03-24T10:54:22.186Z,11.80
2023-03-24T10:56:51.414Z,11.74
2023-03-24T10:59:25.498Z,11.84
2023-03-24T11:02:00.538Z,11.86
2023-03-24T11:04:30.791Z,11.83
2023-03-24T11:07:02.643Z,11.86
2023-03-24T11:09:32.447Z,11.94
2023-03-24T11:12:02.981Z,11.90
2023-03-24T11:14:30.932Z,11.92
2023-03-24T11:17:12.012Z,11.87
2023-03-24T11:19:39.966Z,11.83
2023-03-24T11:22:08.801Z,11.94
2023-03-24T11:24:37.817Z,11.86
2023-03-24T11:27:05.096Z,11.93
2023-03-24T11:29:39.406Z,11.91
2023-03-24T11:32:22.037Z,11.89
2023-03-24T11:34:52.711Z,12.00
2023-03-24T11:37:22.226Z,12.06
2023-03-24T11:40:16.828Z,12.19
2023-03-24T11:42:46.201Z,12.33
2023-03-24T11:45:34.521Z,12.31
2023-03-24T11:48:02.615Z,12.51
2023-03-24T11:50:31.979Z,12.54
2023-03-24T11:53:02.183Z,12.43
2023-03-24T11:55:35.432Z,12.68
2023-03-24T11:58:29.050Z,12.71
2023-03-24T12:01:25.859Z,12.72
2023-03-24T12:03:53.057Z,12.67
2023-03-24T12:06:28.507Z,12.77
2023-03-24T12:09:13.623Z,13.03
2023-03-24T12:11:49.533Z,13.24
2023-03-24T12:14:23.392Z,13.25
2023-03-24T12:16:58.850Z,13.40
2023-03-24T12:19:46.445Z,13.28
2023-03-24T12:22:19.740Z,13.16
2023-03-24T12:25:16.327Z,13.09
2023-03-24T12:28:12.768Z,13.10
2023-03-24T12:30:58.470Z,13.07
2023-03-24T12:33:28.620Z,12.99
2023-03-24T12:36:11.071Z,12.93
2023-03-24T12:38:41.038Z,13.08
2023-03-24T12:41:16.353Z,13.02
2023-03-24T12:43:49.459Z,13.13
2023-03-24T12:46:19.466Z,13.09
2023-03-24T12:48:46.584Z,13.14
2023-03-24T12:51:22.940Z,13.31
2023-03-24T12:53:56.325Z,13.12
2023-03-24T12:56:26.580Z,13.08
2023-03-24T12:58:59.635Z,13.36
2023-03-24T13:01:35.020Z,13.62
2023-03-24T13:04:11.288Z,13.41
2023-03-24T13:06:41.715Z,13.70
2023-03-24T13:09:15.687Z,13.44
2023-03-24T13:12:01.494Z,13.39
2023-03-24T13:14:31.755Z,13.56
2023-03-24T13:17:05.310Z,13.49
2023-03-24T13:19:34.112Z,13.50
2023-03-24T13:22:02.421Z,13.22
2023-03-24T13:24:29.986Z,13.26
2023-03-24T13:26:57.064Z,13.19
2023-03-24T13:29:49.072Z,13.33
2023-03-24T13:32:23.782Z,13.32
2023-03-24T13:35:10.139Z,13.17
2023-03-24T13:38:00.344Z,13.56
2023-03-24T13:40:28.918Z,13.31
2023-03-24T13:43:07.184Z,13.34
2023-03-24T13:45:38.226Z,13.44
2023-03-24T13:48:11.342Z,13.35
2023-03-24T13:50:41.152Z,13.29
2023-03-24T13:53:15.069Z,13.12
2023-03-24T13:55:50.845Z,13.17
2023-03-24T13:58:19.857Z,12.93
2023-03-24T14:01:06.307Z,12.99
2023-03-24T14:03:34.871Z,13.00
2023-03-24T14:06:04.862Z,13.14
2023-03-24T14:08:51.178Z,13.13
2023-03-24T14:11:34.051Z,12.93
2023-03-24T14:14:13.421Z,13.12
2023-03-24T14:16:59.195Z,13.07
2023-03-24T14:19:29.612Z,13.14
2023-03-24T14:22:11.847Z,13.17
2023-03-24T14:24:40.406Z,13.09
2023-03-24T14:27:30.557Z,13.08
2023-03-24T14:30:00.891Z,13.10
2023-03-24T14:32:28.004Z,13.38
2023-03-24T14:35:00.212Z,13.36
2023-03-24T14:37:28.582Z,13.27
2023-03-24T14:39:57.519Z,13.25
2023-03-24T14:42:28.946Z,13.55
2023-03-24T14:44:56.904Z,13.53
2023-03-24T14:47:30.262Z,13.56
2023-03-24T14:49:58.009Z,13.52
2023-03-24T14:52:28.390Z,13.54
2023-03-24T14:54:59.916Z,13.67
2023-03-24T14:57:28.801Z,13.58
2023-03-24T14:59:56.011Z,13.51
2023-03-24T15:02:37.546Z,13.45
2023-03-24T15:05:16.799Z,13.36
2023-03-24T15:07:45.050Z,13.24
2023-03-24T15:10:16.261Z,13.11
2023-03-24T15:12:47.254Z,13.07
2023-03-24T15:15:24.059Z,13.06
2023-03-24T15:17:51.594Z,13.07
2023-03-24T15:20:29.282Z,13.03
2023-03-24T15:22:56.703Z,12.93
2023-03-24T15:25:28.224Z,12.94
2023-03-24T15:27:56.827Z,12.79
2023-03-24T15:30:24.788Z,12.64
2023-03-24T15:32:52.199Z,12.17
2023-03-24T15:35:21.184Z,11.87
2023-03-24T15:37:52.657Z,11.71
2023-03-24T15:40:25.803Z,11.59
2023-03-24T15:42:53.844Z,11.47
2023-03-24T15:45:24.100Z,11.36
2023-03-24T15:47:52.058Z,11.33
2023-03-24T15:50:39.737Z,11.07
2023-03-24T15:53:18.854Z,10.94
2023-03-24T15:55:46.168Z,10.85
2023-03-24T15:58:27.886Z,10.75
2023-03-24T16:00:57.354Z,10.63
2023-03-24T16:03:27.705Z,10.38
2023-03-24T16:05:56.026Z,10.46
2023-03-24T16:08:35.748Z,10.47
2023-03-24T16:11:07.712Z,10.37
2023-03-24T16:13:35.353Z,10.33
2023-03-24T16:16:03.648Z,10.16
2023-03-24T16:18:34.932Z,10.28
2023-03-24T16:21:02.824Z,10.09
2023-03-24T16:23:30.431Z,10.01
2023-03-24T16:25:57.499Z,9.90
2023-03-24T16:28:25.224Z,9.94
2023-03-24T16:30:58.445Z,9.62
2023-03-24T16:33:25.601Z,9.66
2023-03-24T16:35:53.114Z,9.56
2023-03-24T16:38:22.185Z,9.63
2023-03-24T16:40:50.986Z,9.37
2023-03-24T16:43:19.741Z,9.52
2023-03-24T16:45:47.575Z,9.43
2023-03-24T16:48:15.121Z,9.36
2023-03-24T16:50:43.431Z,9.28
2023-03-24T16:53:10.590Z,9.29
2023-03-24T16:55:39.291Z,9.28
2023-03-24T16:58:06.388Z,9.25
2023-03-24T17:00:37.033Z,9.25
2023-03-24T17:03:04.956Z,9.18
2023-03-24T17:05:41.725Z,9.18
2023-03-24T17:08:10.401Z,9.30
2023-03-24T17:10:37.707Z,9.37
2023-03-24T17:13:04.812Z,9.23
2023-03-24T17:15:33.335Z,9.36
2023-03-24T17:18:00.917Z,9.16
2023-03-24T17:20:29.617Z,9.24
2023-03-24T17:22:57.005Z,9.20
2023-03-24T17:25:24.237Z,8.98
2023-03-24T17:27:51.467Z,8.96
2023-03-24T17:30:20.345Z,9.00
2023-03-24T17:32:47.853Z,9.01
2023-03-24T17:35:16.613Z,9.02
2023-03-24T17:37:43.762Z,8.93
2023-03-24T17:40:13.097Z,9.05
2023-03-24T17:42:41.157Z,8.94
2023-03-24T17:45:09.337Z,8.84
2023-03-24T17:47:36.529Z,8.86
2023-03-24T17:50:09.573Z,8.96
2023-03-24T17:52:37.599Z,9.04
2023-03-24T17:55:05.591Z,8.95
2023-03-24T17:57:33.624Z,8.89
2023-03-24T18:00:00.771Z,9.07
2023-03-24T18:02:27.858Z,9.14
2023-03-24T18:04:55.169Z,9.03
2023-03-24T18:07:23.077Z,9.03
2023-03-24T18:09:51.279Z,9.12
2023-03-24T18:12:18.904Z,9.03
2023-03-24T18:14:46.156Z,9.00
2023-03-24T18:17:13.333Z,9.07
2023-03-24T18:19:40.750Z,9.03
2023-03-24T18:22:07.921Z,9.03
2023-03-24T18:24:35.565Z,9.08
2023-03-24T18:27:03.770Z,9.04
2023-03-24T18:29:31.599Z,9.05
2023-03-24T18:31:58.783Z,9.02
2023-03-24T18:34:26.592Z,9.04
2023-03-24T18:36:53.681Z,9.07
2023-03-24T18:39:21.242Z,9.02
2023-03-24T18:41:48.618Z,9.07
2023-03-24T18:44:16.149Z,9.04
2023-03-24T18:46:43.419Z,9.05
2023-03-24T18:49:17.104Z,8.99
2023-03-24T18:51:46.155Z,8.98
2023-03-24T18:54:13.480Z,9.03
2023-03-24T18:56:41.847Z,9.03
2023-03-24T18:59:09.409Z,9.03
2023-03-24T19:01:36.468Z,9.00
2023-03-24T19:04:03.873Z,8.95
2023-03-24T19:06:31.647Z,8.90
2023-03-24T19:08:59.357Z,8.95
2023-03-24T19:11:27.046Z,8.99
2023-03-24T19:13:55.869Z,8.91
2023-03-24T19:16:23.396Z,8.92
2023-03-24T19:18:51.094Z,8.96
2023-03-24T19:21:19.370Z,8.91
2023-03-24T19:23:46.812Z,8.90
2023-03-24T19:26:16.468Z,8.77
2023-03-24T19:28:43.880Z,8.87
2023-03-24T19:31:12.912Z,8.77
2023-03-24T19:33:39.980Z,8.70
2023-03-24T19:36:08.935Z,8.70
2023-03-24T19:38:38.474Z,8.67
2023-03-24T19:41:08.475Z,8.58
2023-03-24T19:43:36.764Z,8.63
2023-03-24T19:46:04.709Z,8.67
2023-03-24T19:48:32.134Z,8.67
2023-03-24T19:51:00.228Z,8.67
2023-03-24T19:53:27.563Z,8.73
2023-03-24T19:55:58.225Z,8.63
2023-03-24T19:58:25.537Z,8.55
2023-03-24T20:00:53.365Z,8.48
2023-03-24T20:03:21.239Z,8.52
2023-03-24T20:05:49.226Z,8.52
2023-03-24T20:08:16.880Z,8.49
2023-03-24T20:10:44.027Z,8.48
2023-03-24T20:13:11.432Z,8.49
2023-03-24T20:15:39.916Z,8.47
2023-03-24T20:18:07.903Z,8.46
2023-03-24T20:20:34.968Z,8.39
2023-03-24T20:23:02.093Z,8.36
2023-03-24T20:25:29.293Z,8.28
2023-03-24T20:27:56.724Z,8.27
2023-03-24T20:30:24.203Z,8.36
2023-03-24T20:32:54.928Z,8.23
2023-03-24T20:35:22.492Z,8.25
2023-03-24T20:37:49.833Z,8.30
2023-03-24T20:40:17.373Z,8.29
2023-03-24T20:42:44.471Z,8.16
2023-03-24T20:45:11.912Z,8.25
2023-03-24T20:47:39.385Z,8.23
2023-03-24T20:50:07.231Z,8.24
2023-03-24T20:52:35.053Z,8.16
2023-03-24T20:55:05.773Z,8.19
2023-03-24T20:57:33.757Z,8.10
2023-03-24T21:00:00.907Z,8.13
2023-03-24T21:02:28.208Z,8.18
2023-03-24T21:04:55.601Z,8.23
2023-03-24T21:07:22.777Z,8.17
2023-03-24T21:09:49.964Z,8.04
2023-03-24T21:12:17.030Z,8.03
2023-03-24T21:14:46.744Z,7.96
2023-03-24T21:17:13.981Z,8.02
2023-03-24T21:19:46.815Z,7.99
2023-03-24T21:22:15.195Z,7.96
2023-03-24T21:24:42.313Z,7.97
2023-03-24T21:27:09.478Z,7.93
2023-03-24T21:29:36.659Z,7.88
2023-03-24T21:32:03.967Z,7.84
2023-03-24T21:34:31.504Z,7.86
2023-03-24T21:37:01.508Z,7.87
2023-03-24T21:39:28.957Z,7.85
2023-03-24T21:41:56.156Z,7.73
2023-03-24T21:44:23.423Z,7.75
2023-03-24T21:46:50.650Z,7.75
2023-03-24T21:49:18.880Z,7.71
2023-03-24T21:51:46.787Z,7.69
2023-03-24T21:54:14.754Z,7.65
2023-03-24T21:56:42.163Z,7.64
2023-03-24T21:59:11.152Z,7.65
2023-03-24T22:01:38.411Z,7.63
2023-03-24T22:04:07.399Z,7.61
2023-03-24T22:06:37.826Z,7.59
2023-03-24T22:09:10.357Z,7.57
2023-03-24T22:11:42.593Z,7.56
2023-03-24T22:14:10.045Z,7.52
2023-03-24T22:16:37.168Z,7.44
2023-03-24T22:19:04.262Z,7.49
2023-03-24T22:21:32.243Z,7.46
2023-03-24T22:23:59.514Z,7.34
2023-03-24T22:26:26.631Z,7.47
2023-03-24T22:28:55.984Z,7.41
2023-03-24T22:31:24.232Z,7.36
2023-03-24T22:33:51.633Z,7.37
2023-03-24T22:36:18.721Z,7.27
2023-03-24T22:38:45.969Z,7.24
2023-03-24T22:41:13.221Z,7.24
2023-03-24T22:43:41.559Z,7.21
2023-03-24T22:46:09.456Z,7.15
2023-03-24T22:48:38.257Z,7.17
2023-03-24T22:51:05.597Z,7.19
2023-03-24T22:53:32.648Z,7.04
2023-03-24T22:55:59.828Z,6.95
2023-03-24T22:58:27.035Z,7.02
2023-03-24T23:00:55.288Z,6.94
2023-03-24T23:03:22.624Z,6.94
2023-03-24T23:05:49.969Z,7.01
2023-03-24T23:08:17.252Z,6.91
2023-03-24T23:10:45.027Z,6.87
2023-03-24T23:13:12.470Z,6.91
2023-03-24T23:15:42.535Z,6.83
2023-03-24T23:18:10.384Z,6.77
2023-03-24T23:20:37.622Z,6.87
2023-03-24T23:23:06.739Z,6.80
2023-03-24T23:25:38.627Z,6.84
2023-03-24T23:28:05.959Z,6.88
2023-03-24T23:30:33.046Z,6.86
2023-03-24T23:33:00.259Z,6.65
2023-03-24T23:35:27.493Z,6.62
2023-03-24T23:37:54.607Z,6.64
2023-03-24T23:40:21.705Z,6.64
2023-03-24T23:42:49.278Z,6.54
2023-03-24T23:45:18.083Z,6.47
2023-03-24T23:47:47.288Z,6.42
2023-03-24T23:50:18.019Z,6.50
2023-03-24T23:52:45.436Z,6.42
2023-03-24T23:55:13.706Z,6.54
2023-03-24T23:57:42.387Z,6.57
